Time;durP1;ratioP1;P1;durP2;ratioP2;P2;SDS_P1;SDS_P2;PMS_P1;PMS_P2;Temp;Humidity;BMP_temperature;BMP_pressure;BME280_temperature;BME280_humidity;BME280_pressure;Samples;Min_cycle;Max_cycle;Signal;HPM_P1;HPM_P2
2023/08/26 00:01:28;;;;;;;;;12.33;11.33;;;;;27.90;100.00;98292.56;6219610;27;96897;-65
2023/08/26 00:04:32;;;;;;;;;9.00;9.00;;;;;27.86;100.00;98288.84;6282008;27;96943;-65
2023/08/26 00:07:36;;;;;;;;;10.20;10.00;;;;;27.86;100.00;98281.34;6271532;27;96620;-65
2023/08/26 00:10:39;;;;;;;;;12.00;11.60;;;;;27.87;100.00;98271.88;6271174;27;96477;-65
2023/08/26 00:13:42;;;;;;;;;13.00;11.80;;;;;27.85;100.00;98267.88;6270805;27;96516;-65
2023/08/26 00:16:47;;;;;;;;;11.00;10.60;;;;;27.76;100.00;98256.91;6289805;27;96403;-65
2023/08/26 00:19:50;;;;;;;;;14.00;11.20;;;;;27.72;100.00;98244.91;6271162;27;96384;-65
2023/08/26 00:22:53;;;;;;;;;13.00;11.25;;;;;27.74;100.00;98237.06;6275770;27;96543;-65
2023/08/26 00:25:56;;;;;;;;;11.00;10.00;;;;;27.69;100.00;98248.38;6270611;27;96600;-65
2023/08/26 00:29:00;;;;;;;;;10.60;10.00;;;;;27.66;100.00;98249.06;6287955;27;96421;-65
2023/08/26 00:32:05;;;;;;;;;12.00;11.40;;;;;27.65;100.00;98255.78;6266843;27;98429;-65
2023/08/26 00:35:08;;;;;;;;;13.60;12.00;;;;;27.66;100.00;98248.28;6271469;27;96265;-65
2023/08/26 00:38:12;;;;;;;;;10.80;9.80;;;;;27.70;100.00;98254.72;6270077;27;96814;-65
2023/08/26 00:41:15;;;;;;;;;11.00;10.75;;;;;27.69;100.00;98253.13;6286623;27;96599;-65
2023/08/26 00:44:19;;;;;;;;;10.60;10.00;;;;;27.67;100.00;98249.88;6268817;27;96430;-65
2023/08/26 00:47:23;;;;;;;;;12.50;11.00;;;;;27.63;100.00;98248.97;6243806;27;98765;-65
2023/08/26 00:50:28;;;;;;;;;13.50;13.00;;;;;27.58;100.00;98250.81;6243164;27;97631;-65
2023/08/26 00:53:32;;;;;;;;;10.00;10.00;;;;;27.54;100.00;98249.91;6267291;27;96370;-65
2023/08/26 00:56:37;;;;;;;;;10.00;10.00;;;;;27.62;100.00;98247.34;6286236;27;97596;-64
2023/08/26 00:59:41;;;;;;;;;11.40;11.00;;;;;27.57;100.00;98249.19;6283539;27;96491;-66
2023/08/26 01:02:48;;;;;;;;;11.40;11.00;;;;;27.54;100.00;98252.69;6249392;27;97966;-65
2023/08/26 01:05:52;;;;;;;;;11.00;11.00;;;;;27.54;100.00;98249.09;6286828;27;97051;-65
2023/08/26 01:08:55;;;;;;;;;11.00;10.00;;;;;27.53;100.00;98248.28;6286753;27;96930;-65
2023/08/26 01:12:05;;;;;;;;;10.00;10.00;;;;;27.54;100.00;98229.72;6268408;27;96383;-65
2023/08/26 01:15:13;;;;;;;;;10.50;10.00;;;;;27.53;100.00;98239.19;6267735;27;96402;-65
2023/08/26 01:18:18;;;;;;;;;10.00;9.00;;;;;27.60;100.00;98246.91;6288522;27;96379;-65
2023/08/26 01:21:24;;;;;;;;;13.00;12.50;;;;;27.64;100.00;98242.28;6262876;27;96911;-65
2023/08/26 01:24:29;;;;;;;;;8.00;8.00;;;;;27.67;100.00;98256.22;6284634;27;96739;-65
2023/08/26 01:27:32;;;;;;;;;10.40;8.40;;;;;27.70;100.00;98258.31;6267969;27;97262;-65
2023/08/26 01:30:36;;;;;;;;;11.00;11.00;;;;;27.66;100.00;98251.06;6268308;27;96622;-65
2023/08/26 01:33:45;;;;;;;;;10.00;9.00;;;;;27.74;100.00;98258.41;6285045;27;96693;-65
2023/08/26 01:36:51;;;;;;;;;13.00;11.00;;;;;27.75;100.00;98260.03;6268259;27;96657;-65
2023/08/26 01:39:59;;;;;;;;;11.00;8.80;;;;;27.77;100.00;98252.16;6285962;27;97253;-65
2023/08/26 01:43:07;;;;;;;;;9.00;8.25;;;;;27.81;100.00;98255.84;6268111;27;96740;-65
2023/08/26 01:46:10;;;;;;;;;9.80;8.00;;;;;27.82;100.00;98252.72;6268907;27;96968;-65
2023/08/26 01:49:14;;;;;;;;;9.60;9.00;;;;;27.82;100.00;98252.72;6238803;27;96730;-65
2023/08/26 01:52:17;;;;;;;;;8.00;7.00;;;;;27.81;100.00;98245.56;6265738;27;96304;-65
2023/08/26 01:55:22;;;;;;;;;9.75;9.00;;;;;27.79;100.00;98249.88;6285664;27;96356;-65
2023/08/26 01:58:26;;;;;;;;;9.40;9.40;;;;;27.75;100.00;98251.72;6234952;27;98492;-66
2023/08/26 02:01:30;;;;;;;;;10.80;10.00;;;;;27.73;100.00;98245.72;6246191;27;97277;-65
2023/08/26 02:04:34;;;;;;;;;9.25;8.50;;;;;27.69;100.00;98239.28;6266540;27;96954;-65
2023/08/26 02:07:37;;;;;;;;;10.00;9.00;;;;;27.67;100.00;98241.56;6268202;27;96955;-65
2023/08/26 02:10:41;;;;;;;;;9.60;9.20;;;;;27.65;100.00;98230.06;6266166;27;96761;-66
2023/08/26 02:13:45;;;;;;;;;12.60;12.20;;;;;27.60;100.00;98231.09;6268236;27;96831;-66
2023/08/26 02:16:48;;;;;;;;;10.25;10.00;;;;;27.54;100.00;98227.75;6264886;27;96949;-65
2023/08/26 02:19:51;;;;;;;;;11.00;9.75;;;;;27.44;100.00;98225.44;6283062;27;96711;-65
2023/08/26 02:22:54;;;;;;;;;9.00;8.80;;;;;27.36;100.00;98243.00;6236701;27;96770;-65
2023/08/26 02:25:58;;;;;;;;;13.00;11.60;;;;;27.20;100.00;98238.50;6244396;27;98812;-65
2023/08/26 02:29:02;;;;;;;;;12.00;11.00;;;;;27.26;100.00;98232.38;6265951;27;96749;-65
2023/08/26 02:32:07;;;;;;;;;11.40;11.00;;;;;27.14;100.00;98235.94;6235519;27;99129;-65
2023/08/26 02:35:10;;;;;;;;;11.00;11.00;;;;;26.81;100.00;98235.22;6284227;27;97539;-65
2023/08/26 02:38:14;;;;;;;;;13.00;12.00;;;;;26.68;100.00;98248.19;6268243;27;96369;-65
2023/08/26 02:41:18;;;;;;;;;15.00;12.40;;;;;26.58;100.00;98256.16;6267834;27;96956;-65
2023/08/26 02:44:21;;;;;;;;;11.00;9.00;;;;;26.51;100.00;98262.22;6248713;27;98568;-65
2023/08/26 02:47:24;;;;;;;;;13.00;10.00;;;;;26.45;100.00;98260.81;6284230;27;96544;-65
2023/08/26 02:50:28;;;;;;;;;9.00;9.00;;;;;26.27;100.00;98242.78;6286624;27;96445;-65
2023/08/26 02:53:32;;;;;;;;;10.00;9.00;;;;;26.34;100.00;98256.06;6283374;27;96694;-65
2023/08/26 02:56:36;;;;;;;;;13.20;12.20;;;;;26.26;100.00;98255.81;6251187;27;96895;-65
2023/08/26 02:59:39;;;;;;;;;12.00;12.00;;;;;26.16;100.00;98252.59;6285802;27;96867;-66
2023/08/26 03:02:42;;;;;;;;;15.00;12.60;;;;;26.06;100.00;98251.06;6250161;27;96417;-65
2023/08/26 03:05:46;;;;;;;;;11.00;10.00;;;;;25.97;100.00;98247.59;6278280;27;96497;-65
2023/08/26 03:08:49;;;;;;;;;13.00;12.00;;;;;25.93;100.00;98245.84;6268505;27;98622;-65
2023/08/26 03:11:54;;;;;;;;;14.40;14.00;;;;;25.96;100.00;98256.19;6268262;27;96389;-65
2023/08/26 03:14:57;;;;;;;;;12.25;12.00;;;;;25.92;100.00;98261.59;6285225;27;96612;-65
2023/08/26 03:18:03;;;;;;;;;12.20;11.80;;;;;25.86;100.00;98260.97;6236992;27;96408;-65
2023/08/26 03:21:07;;;;;;;;;12.00;11.00;;;;;25.96;100.00;98264.47;6289535;27;96386;-65
2023/08/26 03:24:12;;;;;;;;;15.20;14.20;;;;;25.97;100.00;98264.16;6255155;27;98487;-65
2023/08/26 03:27:17;;;;;;;;;15.00;14.00;;;;;26.00;100.00;98263.47;6254583;27;99442;-65
2023/08/26 03:30:20;;;;;;;;;17.50;16.50;;;;;26.02;100.00;98268.66;6253062;27;96863;-65
2023/08/26 03:33:25;;;;;;;;;16.00;15.50;;;;;26.03;100.00;98265.56;6289737;27;96374;-65
2023/08/26 03:36:28;;;;;;;;;11.00;11.00;;;;;26.07;100.00;98263.75;6272383;27;96599;-65
2023/08/26 03:39:32;;;;;;;;;10.00;9.00;;;;;26.04;100.00;98266.38;6272159;27;96361;-65
2023/08/26 03:42:37;;;;;;;;;10.00;9.00;;;;;25.93;100.00;98273.44;6276489;27;96451;-65
2023/08/26 03:45:40;;;;;;;;;12.80;11.20;;;;;25.77;100.00;98287.84;6286445;27;96477;-65
2023/08/26 03:48:43;;;;;;;;;11.00;10.00;;;;;25.66;100.00;98277.53;6287234;27;96306;-66
2023/08/26 03:51:47;;;;;;;;;11.00;9.00;;;;;25.58;100.00;98275.66;6267878;27;96687;-65
2023/08/26 03:54:50;;;;;;;;;10.00;9.00;;;;;25.54;100.00;98285.72;6289396;27;96649;-65
2023/08/26 03:57:55;;;;;;;;;12.00;11.00;;;;;25.52;100.00;98274.19;6247250;27;96326;-64
2023/08/26 04:01:02;;;;;;;;;12.25;12.00;;;;;25.51;100.00;98289.16;6279125;27;96275;-64
2023/08/26 04:04:05;;;;;;;;;15.75;14.00;;;;;25.52;100.00;98297.06;6230010;27;96716;-65
2023/08/26 04:07:09;;;;;;;;;16.00;16.00;;;;;25.56;100.00;98278.72;6280161;27;97561;-65
2023/08/26 04:10:13;;;;;;;;;14.25;13.00;;;;;25.59;100.00;98302.94;6271321;27;96793;-65
2023/08/26 04:13:23;;;;;;;;;14.60;14.40;;;;;25.49;100.00;98288.66;6270271;27;96411;-65
2023/08/26 04:16:26;;;;;;;;;16.80;15.00;;;;;25.65;100.00;98312.63;6259538;27;96665;-65
2023/08/26 04:19:30;;;;;;;;;20.20;18.80;;;;;25.65;100.00;98307.13;6252690;27;97069;-65
2023/08/26 04:22:33;;;;;;;;;16.00;14.00;;;;;25.60;100.00;98315.59;6253893;27;98618;-65
2023/08/26 04:25:36;;;;;;;;;13.00;12.40;;;;;25.63;100.00;98314.91;6271393;27;98140;-65
2023/08/26 04:28:41;;;;;;;;;10.75;10.00;;;;;25.68;100.00;98319.44;6267669;27;96472;-65
2023/08/26 04:31:44;;;;;;;;;14.00;13.00;;;;;25.75;100.00;98319.72;6262783;27;96447;-65
2023/08/26 04:34:50;;;;;;;;;11.40;10.40;;;;;25.81;100.00;98313.66;6269982;27;96346;-65
2023/08/26 04:37:53;;;;;;;;;14.00;13.00;;;;;25.93;100.00;98317.66;6289156;27;96363;-65
2023/08/26 04:40:57;;;;;;;;;12.80;11.40;;;;;26.01;100.00;98317.56;6269544;27;96668;-65
2023/08/26 04:44:03;;;;;;;;;11.60;10.60;;;;;26.12;100.00;98320.75;6286911;27;96374;-65
2023/08/26 04:47:07;;;;;;;;;12.00;11.80;;;;;26.23;100.00;98320.03;6269982;27;97017;-64
2023/08/26 04:50:11;;;;;;;;;15.00;13.00;;;;;26.32;100.00;98328.25;6273692;27;96389;-65
2023/08/26 04:53:14;;;;;;;;;11.40;11.00;;;;;26.40;100.00;98319.06;6252170;27;99920;-65
2023/08/26 04:56:18;;;;;;;;;11.60;11.00;;;;;26.50;100.00;98323.38;6252591;27;98600;-65
2023/08/26 04:59:22;;;;;;;;;12.00;10.20;;;;;26.53;100.00;98329.03;6252397;27;99393;-65
2023/08/26 05:02:25;;;;;;;;;11.00;9.40;;;;;26.62;100.00;98327.00;6283306;27;96521;-65
2023/08/26 05:05:29;;;;;;;;;12.00;11.00;;;;;26.76;100.00;98323.13;6251574;27;96648;-65
2023/08/26 05:08:32;;;;;;;;;9.00;9.00;;;;;26.93;100.00;98323.75;6284230;27;97391;-65
2023/08/26 05:11:35;;;;;;;;;11.00;10.00;;;;;27.13;100.00;98330.38;6267425;27;98916;-65
2023/08/26 05:14:41;;;;;;;;;24.80;20.00;;;;;27.33;100.00;98332.25;6266377;27;96713;-65
2023/08/26 05:17:45;;;;;;;;;29.60;26.00;;;;;27.57;100.00;98323.16;6263645;27;97422;-65
2023/08/26 05:20:48;;;;;;;;;16.20;15.80;;;;;27.78;100.00;98320.25;6268854;27;96392;-65
2023/08/26 05:23:52;;;;;;;;;14.00;13.00;;;;;27.99;100.00;98324.50;6270546;27;96405;-65
2023/08/26 05:26:55;;;;;;;;;11.00;10.60;;;;;28.06;100.00;98309.22;6266515;27;96306;-65
2023/08/26 05:30:02;;;;;;;;;10.60;9.00;;;;;28.18;100.00;98328.66;6260598;27;96108;-65
2023/08/26 05:33:09;;;;;;;;;13.00;11.50;;;;;28.22;100.00;98338.69;6267098;27;96666;-65
2023/08/26 05:36:13;;;;;;;;;10.60;10.60;;;;;28.19;100.00;98333.03;6249279;27;96980;-65
2023/08/26 05:39:16;;;;;;;;;12.00;11.00;;;;;28.18;100.00;98328.66;6285216;27;97100;-65
2023/08/26 05:42:19;;;;;;;;;11.00;11.00;;;;;28.28;100.00;98334.50;6266465;27;96353;-65
2023/08/26 05:45:25;;;;;;;;;10.60;9.00;;;;;28.46;100.00;98326.69;6280034;27;96432;-65
2023/08/26 05:48:28;;;;;;;;;11.00;10.40;;;;;28.62;100.00;98327.56;6252541;27;96930;-65
2023/08/26 05:51:31;;;;;;;;;11.80;10.00;;;;;28.84;100.00;98340.06;6289797;27;96972;-64
2023/08/26 05:54:34;;;;;;;;;11.00;10.00;;;;;28.92;100.00;98339.13;6275370;27;96387;-65
2023/08/26 05:57:41;;;;;;;;;12.40;10.00;;;;;29.07;100.00;98335.56;6283481;27;96314;-64
2023/08/26 06:00:46;;;;;;;;;12.40;12.00;;;;;29.24;100.00;98337.97;6272587;27;96935;-65
2023/08/26 06:03:50;;;;;;;;;10.20;10.00;;;;;29.30;100.00;98327.41;6290751;27;96377;-65
2023/08/26 06:06:53;;;;;;;;;12.00;11.50;;;;;29.49;100.00;98349.75;6257684;27;98617;-65
2023/08/26 06:09:56;;;;;;;;;12.00;11.00;;;;;29.56;100.00;98344.38;6291493;27;97073;-64
2023/08/26 06:13:04;;;;;;;;;11.00;10.00;;;;;29.71;100.00;98349.06;6268859;27;96847;-65
2023/08/26 06:16:11;;;;;;;;;11.00;11.00;;;;;29.90;100.00;98345.59;6276983;27;98432;-65
2023/08/26 06:19:15;;;;;;;;;12.00;10.50;;;;;30.19;100.00;98341.47;6262729;27;98436;-67
2023/08/26 06:22:18;;;;;;;;;11.00;10.00;;;;;30.41;100.00;98343.53;6271336;27;96331;-66
2023/08/26 06:25:22;;;;;;;;;9.20;9.20;;;;;30.65;100.00;98361.94;6263775;27;97047;-66
2023/08/26 06:28:25;;;;;;;;;11.00;10.00;;;;;30.82;100.00;98361.50;6283564;27;96950;-65
2023/08/26 06:31:30;;;;;;;;;10.00;10.00;;;;;30.89;100.00;98360.81;6277565;27;97017;-64
2023/08/26 06:34:33;;;;;;;;;10.60;9.60;;;;;31.11;100.00;98362.88;6259704;27;96728;-66
2023/08/26 06:37:36;;;;;;;;;11.00;10.40;;;;;31.35;100.00;98361.72;6249568;27;99552;-65
2023/08/26 06:40:40;;;;;;;;;10.00;10.00;;;;;31.55;100.00;98368.81;6289196;27;96934;-66
2023/08/26 06:43:43;;;;;;;;;9.00;8.25;;;;;31.92;100.00;98371.00;6267873;27;97045;-65
2023/08/26 06:46:57;;;;;;;;;12.00;9.50;;;;;32.17;100.00;98367.44;6262798;27;97580;-66
2023/08/26 06:50:00;;;;;;;;;11.40;11.40;;;;;32.63;100.00;98379.28;6284216;27;97411;-65
2023/08/26 06:53:04;;;;;;;;;10.40;9.00;;;;;32.87;100.00;98374.34;6252617;27;96930;-65
2023/08/26 06:56:07;;;;;;;;;8.00;8.00;;;;;32.86;100.00;98383.91;6294686;27;96491;-66
2023/08/26 06:59:10;;;;;;;;;11.60;10.00;;;;;32.97;100.00;98387.63;6281415;27;96915;-66
2023/08/26 07:02:15;;;;;;;;;10.00;10.00;;;;;33.24;100.00;98391.94;6275789;27;96968;-66
2023/08/26 07:05:18;;;;;;;;;9.00;8.20;;;;;33.25;100.00;98393.56;6276783;27;96855;-66
2023/08/26 07:08:21;;;;;;;;;9.60;9.40;;;;;33.28;100.00;98395.56;6277476;27;96407;-65
2023/08/26 07:11:25;;;;;;;;;10.40;9.00;;;;;33.43;100.00;98393.72;6281065;27;99244;-67
2023/08/26 07:14:28;;;;;;;;;9.00;9.00;;;;;33.62;100.00;98393.53;6278349;27;96891;-65
2023/08/26 07:17:34;;;;;;;;;11.00;10.25;;;;;33.68;100.00;98394.78;6258732;27;98286;-65
2023/08/26 07:20:38;;;;;;;;;11.20;9.20;;;;;33.80;100.00;98390.88;6276139;27;96879;-66
2023/08/26 07:23:42;;;;;;;;;12.00;11.60;;;;;34.04;100.00;98403.44;6260045;27;97009;-66
2023/08/26 07:26:45;;;;;;;;;12.75;11.00;;;;;34.27;100.00;98402.03;6295567;27;97232;-66
2023/08/26 07:29:48;;;;;;;;;10.00;9.80;;;;;34.46;100.00;98400.94;6255172;27;97583;-66
2023/08/26 07:32:53;;;;;;;;;11.75;10.75;;;;;34.58;100.00;98397.00;6270315;27;98699;-66
2023/08/26 07:36:02;;;;;;;;;11.80;10.00;;;;;34.90;100.00;98406.38;6272749;27;97455;-66
2023/08/26 07:39:06;;;;;;;;;10.00;9.00;;;;;35.11;100.00;98400.84;6264249;27;98390;-66
2023/08/26 07:42:09;;;;;;;;;12.00;11.00;;;;;35.25;100.00;98397.28;6287971;27;96444;-66
2023/08/26 07:45:12;;;;;;;;;11.80;11.80;;;;;35.32;100.00;98393.72;6271540;27;97060;-66
2023/08/26 07:48:17;;;;;;;;;12.00;10.00;;;;;35.55;100.00;98394.94;6306274;27;96324;-66
2023/08/26 07:51:23;;;;;;;;;10.75;9.25;;;;;35.75;100.00;98395.38;6268473;27;96611;-66
2023/08/26 07:54:26;;;;;;;;;11.40;9.80;;;;;35.92;100.00;98390.97;6272356;27;97686;-67
2023/08/26 07:57:29;;;;;;;;;10.60;10.00;;;;;36.02;100.00;98393.75;6290204;27;96359;-66
2023/08/26 08:00:32;;;;;;;;;9.00;8.00;;;;;36.05;100.00;98397.78;6290687;27;96963;-66
2023/08/26 08:03:37;;;;;;;;;7.00;7.00;;;;;35.94;100.00;98397.78;6291829;27;96426;-67
2023/08/26 08:06:40;;;;;;;;;8.00;7.00;;;;;36.08;100.00;98396.97;6287197;27;96461;-66
2023/08/26 08:09:44;;;;;;;;;9.00;9.00;;;;;36.27;100.00;98401.34;6296580;27;96527;-66
2023/08/26 08:12:47;;;;;;;;;8.00;7.60;;;;;36.59;100.00;98396.47;6260549;27;97041;-66
2023/08/26 08:15:50;;;;;;;;;6.00;5.40;;;;;36.78;100.00;98393.22;6286774;27;96822;-67
2023/08/26 08:18:55;;;;;;;;;8.00;7.00;;;;;36.99;100.00;98397.13;6295099;27;96408;-66
2023/08/26 08:21:58;;;;;;;;;8.00;7.00;;;;;37.25;100.00;98396.59;6296056;27;96382;-67
2023/08/26 08:25:01;;;;;;;;;7.67;7.67;;;;;37.43;100.00;98386.06;6266009;27;98626;-66
2023/08/26 08:28:05;;;;;;;;;8.40;8.00;;;;;37.89;100.00;98393.34;6287709;27;97916;-66
2023/08/26 08:31:08;;;;;;;;;7.50;7.00;;;;;38.32;100.00;98393.75;6290235;27;96480;-66
2023/08/26 08:34:13;;;;;;;;;6.00;6.00;;;;;38.71;100.00;98390.53;6256518;27;99011;-67
2023/08/26 08:37:16;;;;;;;;;7.00;5.50;;;;;39.07;100.00;98390.88;6293301;27;96463;-66
2023/08/26 08:40:20;;;;;;;;;7.00;7.00;;;;;38.86;100.00;98389.09;6252194;27;97072;-66
2023/08/26 08:43:25;;;;;;;;;9.00;8.75;;;;;38.89;100.00;98394.75;6274540;27;98682;-67
2023/08/26 08:46:28;;;;;;;;;7.00;7.00;;;;;39.08;100.00;98396.09;6284271;27;97052;-66
2023/08/26 08:49:34;;;;;;;;;7.75;7.00;;;;;38.98;100.00;98382.94;6289245;27;96397;-66
2023/08/26 08:52:38;;;;;;;;;6.80;6.80;;;;;39.10;100.00;98385.19;6286247;27;96412;-67
2023/08/26 08:55:41;;;;;;;;;7.00;6.40;;;;;38.93;100.00;98381.41;6283932;27;97634;-66
2023/08/26 08:58:47;;;;;;;;;6.00;6.00;;;;;38.94;100.00;98379.38;6267535;27;96478;-66
2023/08/26 09:01:50;;;;;;;;;5.80;5.00;;;;;38.67;100.00;98361.59;6273242;27;97462;-66
2023/08/26 09:04:55;;;;;;;;;8.00;8.00;;;;;38.98;100.00;98372.47;6282819;27;98498;-66
2023/08/26 09:07:59;;;;;;;;;9.25;8.00;;;;;39.40;100.00;98364.63;6281586;27;98447;-66
2023/08/26 09:11:03;;;;;;;;;8.00;7.00;;;;;39.81;100.00;98361.56;6300575;27;96369;-66
2023/08/26 09:14:07;;;;;;;;;6.60;6.00;;;;;40.19;100.00;98356.47;6283757;27;96583;-67
2023/08/26 09:17:17;;;;;;;;;9.00;8.00;;;;;40.37;100.00;98359.75;6263002;27;99066;-66
2023/08/26 09:20:21;;;;;;;;;8.00;7.00;;;;;40.79;99.75;98366.59;6301025;27;96667;-66
2023/08/26 09:23:24;;;;;;;;;8.80;8.00;;;;;41.05;99.90;98365.63;6265553;27;97057;-66
2023/08/26 09:26:28;;;;;;;;;7.00;7.00;;;;;41.29;100.00;98371.16;6282178;27;96289;-66
2023/08/26 09:29:32;;;;;;;;;10.00;9.50;;;;;41.43;96.39;98365.16;6277143;27;96310;-66
2023/08/26 09:32:37;;;;;;;;;9.00;8.75;;;;;41.53;97.85;98375.47;6255895;27;96854;-66
2023/08/26 09:35:49;;;;;;;;;9.00;8.00;;;;;41.69;95.41;98369.78;6289565;27;96257;-66
2023/08/26 09:38:55;;;;;;;;;8.00;7.00;;;;;41.82;94.91;98359.34;6297263;27;96323;-66
2023/08/26 09:41:59;;;;;;;;;8.00;8.00;;;;;41.97;96.22;98356.19;6262774;27;96726;-66
2023/08/26 09:45:07;;;;;;;;;9.00;9.00;;;;;42.22;96.00;98359.13;6279119;27;96477;-66
2023/08/26 09:48:21;;;;;;;;;9.40;9.00;;;;;42.38;93.87;98347.78;6279686;27;96329;-66
2023/08/26 09:51:27;;;;;;;;;10.75;10.25;;;;;41.77;95.73;98359.09;6261689;27;97328;-66
2023/08/26 09:54:32;;;;;;;;;11.60;11.00;;;;;41.04;99.55;98349.91;6250410;27;98954;-66
2023/08/26 09:57:35;;;;;;;;;10.00;9.00;;;;;40.31;100.00;98361.50;6290132;27;96347;-66
2023/08/26 10:00:38;;;;;;;;;9.00;8.60;;;;;39.74;100.00;98356.00;6295171;27;96520;-66
2023/08/26 10:03:45;;;;;;;;;10.00;10.00;;;;;38.95;100.00;98347.94;6258375;27;98562;-66
2023/08/26 10:06:53;;;;;;;;;8.25;8.25;;;;;38.24;100.00;98344.38;6275607;27;96448;-66
2023/08/26 10:10:01;;;;;;;;;9.20;8.00;;;;;37.74;100.00;98333.56;6293344;27;97097;-66
2023/08/26 10:13:06;;;;;;;;;11.00;10.00;;;;;37.29;100.00;98325.09;6277297;27;96508;-66
2023/08/26 10:16:12;;;;;;;;;10.00;9.00;;;;;36.99;100.00;98321.28;6293292;27;96549;-66
2023/08/26 10:19:30;;;;;;;;;12.00;10.00;;;;;36.67;100.00;98313.00;6292522;27;96506;-66
2023/08/26 10:22:37;;;;;;;;;8.00;8.00;;;;;36.41;100.00;98295.44;6293298;27;96729;-66
2023/08/26 10:25:41;;;;;;;;;10.20;10.20;;;;;36.14;100.00;98279.50;6258246;27;99358;-66
2023/08/26 10:28:45;;;;;;;;;10.00;10.00;;;;;35.88;100.00;98283.56;6273814;27;98685;-66
2023/08/26 10:31:48;;;;;;;;;12.80;11.80;;;;;35.51;100.00;98278.41;6253128;27;96899;-66
2023/08/26 10:34:55;;;;;;;;;10.00;9.60;;;;;35.14;100.00;98285.16;6273689;27;96517;-66
2023/08/26 10:38:14;;;;;;;;;11.00;9.00;;;;;34.78;100.00;98297.53;6273720;27;96835;-66
2023/08/26 10:41:17;;;;;;;;;10.20;9.80;;;;;34.56;100.00;98310.63;6273740;27;98440;-66
2023/08/26 10:44:30;;;;;;;;;13.00;11.00;;;;;34.26;100.00;98316.47;6279818;27;96443;-66
2023/08/26 10:47:35;;;;;;;;;11.60;10.00;;;;;34.06;100.00;98334.75;6272689;27;97832;-66
2023/08/26 10:50:41;;;;;;;;;12.60;12.00;;;;;33.80;100.00;98330.19;6255625;27;96909;-66
2023/08/26 10:53:45;;;;;;;;;14.00;14.00;;;;;33.59;100.00;98304.03;6274308;27;96390;-66
2023/08/26 10:56:59;;;;;;;;;12.00;11.00;;;;;33.47;100.00;98333.91;6289983;27;96381;-66
2023/08/26 11:00:09;;;;;;;;;13.00;12.60;;;;;33.31;100.00;98366.06;6291019;27;96471;-66
2023/08/26 11:03:13;;;;;;;;;13.00;12.00;;;;;33.18;100.00;98364.75;6254798;27;98426;-66
2023/08/26 11:06:21;;;;;;;;;11.00;9.60;;;;;33.03;100.00;98363.78;6268478;27;96656;-66
2023/08/26 11:09:26;;;;;;;;;12.00;11.00;;;;;32.91;100.00;98362.03;6283495;27;96944;-66
2023/08/26 11:12:30;;;;;;;;;11.00;10.00;;;;;32.78;100.00;98362.69;6269078;27;96416;-67
2023/08/26 11:15:37;;;;;;;;;13.40;13.40;;;;;32.70;100.00;98380.53;6278701;27;96912;-65
2023/08/26 11:18:42;;;;;;;;;11.50;11.00;;;;;32.59;100.00;98391.53;6269199;27;98438;-66
2023/08/26 11:21:45;;;;;;;;;14.00;13.20;;;;;32.50;100.00;98408.56;6268237;27;96944;-66
2023/08/26 11:24:50;;;;;;;;;12.00;12.00;;;;;32.27;100.00;98416.19;6288195;27;96325;-65
2023/08/26 11:27:54;;;;;;;;;15.00;14.00;;;;;32.09;100.00;98415.13;6288106;27;96546;-66
2023/08/26 11:30:58;;;;;;;;;15.20;13.20;;;;;31.80;100.00;98395.16;6267281;27;96602;-65
2023/08/26 11:34:01;;;;;;;;;14.00;13.00;;;;;31.73;100.00;98385.84;6266227;27;98576;-66
2023/08/26 11:37:05;;;;;;;;;16.50;16.00;;;;;31.58;100.00;98397.94;6266712;27;98453;-66
2023/08/26 11:40:11;;;;;;;;;15.60;14.60;;;;;31.24;100.00;98408.84;6263726;27;96838;-65
2023/08/26 11:43:16;;;;;;;;;17.00;13.00;;;;;30.98;100.00;98389.25;6271292;27;96981;-66
2023/08/26 11:46:20;;;;;;;;;13.00;12.00;;;;;30.63;100.00;98389.34;6290399;27;96265;-65
2023/08/26 11:49:24;;;;;;;;;15.40;13.40;;;;;30.31;100.00;98410.06;6254135;27;97292;-65
2023/08/26 11:52:32;;;;;;;;;14.40;13.40;;;;;30.00;100.00;98408.97;6254765;27;96761;-65
2023/08/26 11:55:37;;;;;;;;;11.00;10.00;;;;;29.66;100.00;98387.47;6251423;27;96810;-65
2023/08/26 11:58:40;;;;;;;;;12.80;12.00;;;;;29.42;100.00;98413.41;6279322;27;96437;-65
2023/08/26 12:01:43;;;;;;;;;13.20;12.00;;;;;28.90;100.00;98479.34;6259154;27;98422;-67
2023/08/26 12:04:46;;;;;;;;;13.60;12.60;;;;;28.30;100.00;98567.81;6290192;27;97578;-65
2023/08/26 12:07:51;;;;;;;;;7.00;6.00;;;;;27.48;100.00;98525.38;6265230;27;98638;-66
2023/08/26 12:10:58;;;;;;;;;6.00;6.00;;;;;26.68;100.00;98544.06;6280989;27;96566;-65
2023/08/26 12:14:02;;;;;;;;;6.00;6.00;;;;;26.19;100.00;98525.50;6248591;27;96578;-65
2023/08/26 12:17:06;;;;;;;;;5.50;5.50;;;;;26.14;100.00;98526.50;6269642;27;97051;-65
2023/08/26 12:20:20;;;;;;;;;6.00;5.67;;;;;26.17;100.00;98525.00;6267494;27;96384;-66
2023/08/26 12:23:23;;;;;;;;;5.40;5.40;;;;;25.98;100.00;98483.16;6283101;27;96955;-66
2023/08/26 12:26:27;;;;;;;;;5.00;5.00;;;;;26.01;100.00;98438.28;6253344;27;96773;-66
2023/08/26 12:29:31;;;;;;;;;6.60;5.00;;;;;25.88;100.00;98509.22;6279090;27;96403;-66
2023/08/26 12:32:35;;;;;;;;;8.00;7.00;;;;;25.59;100.00;98498.91;6268041;27;96866;-66
2023/08/26 12:35:39;;;;;;;;;6.00;6.00;;;;;25.43;100.00;98495.03;6264245;27;97574;-65
2023/08/26 12:38:43;;;;;;;;;5.25;5.00;;;;;25.33;100.00;98545.03;6279279;27;96458;-65
2023/08/26 12:41:47;;;;;;;;;6.00;6.00;;;;;25.45;100.00;98550.72;6281112;27;96360;-65
2023/08/26 12:44:52;;;;;;;;;6.00;5.00;;;;;25.53;100.00;98544.34;6281848;27;96719;-65
2023/08/26 12:47:56;;;;;;;;;4.60;4.00;;;;;25.51;100.00;98538.34;6283107;27;97168;-65
2023/08/26 12:51:00;;;;;;;;;5.60;5.60;;;;;25.54;100.00;98536.91;6282030;27;96648;-66
2023/08/26 12:54:03;;;;;;;;;7.00;6.00;;;;;25.44;100.00;98527.00;6267509;27;97260;-65
2023/08/26 12:57:08;;;;;;;;;5.20;5.20;;;;;25.35;100.00;98523.47;6275927;27;96779;-65
2023/08/26 13:00:12;;;;;;;;;5.00;5.00;;;;;25.34;100.00;98513.56;6266939;27;98652;-65
2023/08/26 13:03:15;;;;;;;;;5.00;4.40;;;;;25.30;100.00;98531.91;6253710;27;96691;-66
2023/08/26 13:06:19;;;;;;;;;2.60;2.60;;;;;25.24;100.00;98536.78;6273547;27;97471;-65
2023/08/26 13:09:23;;;;;;;;;4.60;4.00;;;;;24.98;100.00;98541.47;6250518;27;98403;-65
2023/08/26 13:12:28;;;;;;;;;5.00;4.00;;;;;24.98;100.00;98535.97;6279721;27;96991;-66
2023/08/26 13:15:32;;;;;;;;;4.25;4.00;;;;;25.02;100.00;98514.91;6237849;27;99120;-65
2023/08/26 13:18:35;;;;;;;;;4.00;4.00;;;;;25.04;100.00;98462.97;6274969;27;96802;-66
2023/08/26 13:21:38;;;;;;;;;3.00;3.00;;;;;25.02;100.00;98413.63;6261958;27;98598;-65
2023/08/26 13:24:42;;;;;;;;;3.20;3.20;;;;;25.00;100.00;98382.03;6264552;27;96880;-65
2023/08/26 13:27:48;;;;;;;;;5.00;4.75;;;;;24.83;100.00;98376.50;6278629;27;96647;-66
2023/08/26 13:30:51;;;;;;;;;5.60;5.00;;;;;24.45;100.00;98335.84;6264733;27;96841;-65
2023/08/26 13:33:54;;;;;;;;;5.00;5.00;;;;;24.61;100.00;98278.28;6283671;27;97132;-65
2023/08/26 13:36:57;;;;;;;;;4.00;3.25;;;;;24.63;100.00;98211.81;6283156;27;96459;-65
2023/08/26 13:40:01;;;;;;;;;3.00;3.00;;;;;24.82;100.00;98237.84;6269113;27;96219;-65
2023/08/26 13:43:05;;;;;;;;;4.00;3.50;;;;;24.90;100.00;98272.06;6260180;27;96862;-65
2023/08/26 13:46:09;;;;;;;;;5.00;4.00;;;;;25.08;100.00;98289.34;6265123;27;97183;-65
2023/08/26 13:49:12;;;;;;;;;4.00;4.00;;;;;25.22;100.00;98320.28;6276629;27;96702;-65
2023/08/26 13:52:16;;;;;;;;;5.00;5.00;;;;;25.09;100.00;98417.84;6273950;27;97148;-65
2023/08/26 13:55:20;;;;;;;;;3.75;3.75;;;;;25.01;100.00;98402.94;6263092;27;96348;-65
2023/08/26 13:58:25;;;;;;;;;5.00;4.00;;;;;25.30;100.00;98407.75;6278937;27;96395;-65
2023/08/26 14:01:28;;;;;;;;;3.00;3.00;;;;;25.34;100.00;98452.84;6279605;27;96814;-65
2023/08/26 14:04:31;;;;;;;;;4.80;4.80;;;;;25.58;100.00;98439.31;6273984;27;96526;-65
2023/08/26 14:07:35;;;;;;;;;5.00;4.60;;;;;25.53;100.00;98408.28;6245434;27;97398;-65